Tiempo atmosférico en la estación meteorológica de Almazul, Soria (1000 m.)



Fecha
DESCASC
Temp. máxima en grados centígrados (hora)
DESCASC
Temp. mínima en grados centígrados (hora)
DESCASC
Temp. media en grados centígrados
DESCASC
Racha de viento máxima en m/sg (hora)
DESCASC
Velocidad máxima media en intervalos de 10 minutos(hora)
DESCASC
Precipitaciones diarias en mm
DESCASC
Precipitaciones de 00:00 a 06:00 en mm
DESCASC
Precipitaciones de 06:00 a 12:00 en mm
DESCASC
Precipitaciones de 12:00 a 18:00 en mm
DESCASC
Precipitaciones de 18:00 a 24:00 en mm
DESCASC
18-04-2019 12.8 (00:00) 6.6 (23:20) 9.7 13.06 (16:00) 9.44 (16:00) 17.8 0 9.6 1.4 6.8
17-04-2019 18.7 (15:10) 7.8 (07:50) 13.3 15.28 (19:10) 11.67 (19:10) 0 0 0 0 0
16-04-2019 18.1 (17:30) 5 (00:00) 11.6 10.28 (22:40) 7.5 (23:40) 0 0 0 0 0
15-04-2019 20.1 (15:10) 6.5 (00:00) 13.3 15 (20:10) 10.28 (15:00) 7 0 0 7 0
14-04-2019 19.5 (17:30) 4.5 (00:00) 12 13.33 (15:10) 7.78 (13:40) 0 0 0 0 0
13-04-2019 18.9 (15:50) -0.8 (-00:0) 9 9.17 (22:30) 6.94 (22:30) 0 0 0 0 0
12-04-2019 13.4 (18:00) 0.5 (00:00) 6.9 12.22 (10:10) 9.72 (10:40) 0 0 0 0 0
11-04-2019 10.6 (17:20) 1.2 (00:00) 5.9 14.72 (19:10) 11.39 (19:00) 0 0 0 0 0
10-04-2019 10.4 (16:20) 1.8 (00:00) 6.1 13.89 (19:30) 10.56 (19:20) 1.4 0.2 0 1.2 0
09-04-2019 8.9 (14:20) 3.1 (00:00) 6 12.5 (19:40) 8.61 (16:50) 2.2 0 0 1 1.2
08-04-2019 12.6 (18:10) 3.8 (00:00) 8.2 13.61 (15:10) 9.44 (15:00) 0.6 0.2 0.2 0.2 0
07-04-2019 8.7 (17:10) 1.3 (00:00) 5 13.06 (13:30) 8.33 (03:40) 0.2 0.2 0 0 0
06-04-2019 6.7 (14:40) 0.4 (00:00) 3.5 14.44 (18:30) 10 (13:30) 4.2 0.2 0 0.8 3.2
05-04-2019 7.5 (17:00) 0.1 (00:00) 3.8 11.94 (11:50) 8.61 (11:30) 3 0 0.4 0.8 1.8
04-04-2019 10.9 (17:40) -3.1 (-00:0) 3.9 12.22 (18:30) 8.33 (18:30) 0 0 0 0 0
03-04-2019 9.4 (16:50) -0.9 (23:59) 4.2 18.06 (19:50) 10.83 (14:10) 0.8 0 0 0.2 0.6
02-04-2019 14.9 (14:50) 4 (00:00) 9.4 14.17 (15:20) 9.72 (15:50) 3.4 0 0 2.4 1
01-04-2019 14.2 (17:00) 4.5 (00:00) 9.3 11.11 (18:40) 7.78 (18:50) 9.2 0 0 0 9.2
31-03-2019 10.4 (13:00) 4.4 (00:00) 7.4 9.17 (11:50) 6.11 (15:20) 2.2 0 0 0.2 2
30-03-2019 15.7 (16:20) -0.4 (00:00) 7.6 10 (19:30) 7.5 (19:30) 0 0 0 0 0
29-03-2019 17.5 (16:40) 1.1 (00:00) 9.3 12.5 (21:20) 9.44 (20:50) 0 0 0 0 0
28-03-2019 17 (15:20) -0.8 (-00:0) 8.1 11.67 (01:10) 9.44 (01:10) 0 0 0 0 0
27-03-2019 14.8 (16:10) -1.1 (-00:0) 6.9 12.5 (19:00) 9.44 (18:50) 0 0 0 0 0
26-03-2019 15 (16:00) 2.2 (00:00) 8.6 16.11 (07:40) 12.22 (07:40) 0 0 0 0 0
25-03-2019 -- (--) -- (--) -- -- (--) -- (--) -- 0 0 0 --
24-03-2019 21.6 (15:10) 0.6 (00:00) 11.1 14.44 (21:20) 10.83 (21:30) 0 0 0 0 0
23-03-2019 17.3 (15:00) -0.2 (00:00) 8.5 11.94 (16:20) 6.94 (16:50) 0 0 0 0 0
22-03-2019 15.6 (15:30) -3 (-00:0) 6.3 10 (15:40) 5.83 (15:40) 0 0 0 0 0
21-03-2019 -- (--) -- (--) -- -- (--) -- (--) -- -- -- -- 0

Gráficas

Temp. máximas Temp. mínimas Temp. medias Precipitaciones Rachas de viento máximas Velocidades máximas media en intervalos de 10 minutos

Datos horarios

Fecha y hora oficial Temperatura (ºC) Velocidad del viento (km/h) Dirección del viento Racha (km/h) Dirección de racha Precipitación (mm) Presión (hPa) Tendencia (hPa) Humedad (%)
2019-04-19 23:00:00 10.4 22 Sudeste 39 Sudeste 0 -- -- 66
2019-04-19 22:00:00 10.7 17 Sudeste 37 Sudeste 0 -- -- 64
2019-04-19 21:00:00 10.7 16 Sudeste 40 Sudeste 0 -- -- 66
2019-04-19 20:00:00 11.6 27 Sudeste 52 Sudeste 0 -- -- 68
2019-04-19 19:00:00 11.8 37 Sudeste 62 Sudeste 0 -- -- 72
2019-04-19 18:00:00 11.9 46 Sudeste 71 Sudeste 0 -- -- 73
2019-04-19 17:00:00 12 31 Sudeste 59 Sudeste 0 -- -- 72
2019-04-19 16:00:00 11.3 41 Este 58 Sudeste 0 -- -- 76
2019-04-19 15:00:00 11.4 31 Sudeste 59 Sudeste 0 -- -- 80
2019-04-19 14:00:00 10.3 32 Sudeste 50 Sudeste 0 -- -- 83
2019-04-19 13:00:00 9.5 37 Sudeste 59 Sudeste 0 -- -- 85
2019-04-19 12:00:00 7.7 35 Sudeste 61 Sudeste 0 -- -- 93
2019-04-19 11:00:00 7.3 30 Sudeste 41 Sudeste 0.2 -- -- 95
2019-04-19 10:00:00 7.2 22 Sudeste 32 Sudeste 0.4 -- -- 95
2019-04-19 09:00:00 7.1 19 Sudeste 35 Sudeste 0.6 -- -- 95
2019-04-19 08:00:00 7.1 19 Sudeste 43 Sudeste 0.6 -- -- 95
2019-04-19 07:00:00 7 23 Sudeste 43 Sudeste 1.2 -- -- 94
2019-04-19 06:00:00 7.1 21 Sudeste 44 Sudeste 2.6 -- -- 94
2019-04-19 05:00:00 7.2 26 Sudeste 49 Sudeste 1.6 -- -- 94
2019-04-19 04:00:00 6.8 12 Sudeste 30 Sudeste 0.4 -- -- 95
2019-04-19 03:00:00 6.8 21 Sudeste 30 Sudeste 0.6 -- -- 94
2019-04-19 02:00:00 6.9 19 Sudeste 37 Sudeste 0.2 -- -- 93
2019-04-19 01:00:00 6.9 12 Sudoeste 27 Sudeste 0.2 -- -- 93
2019-04-19 00:00:00 6.8 14 Sur 20 Sur 0.8 -- -- 95
2019-04-18 23:00:00 6.9 13 Sur 25 Sur 1.2 -- -- 96
2019-04-18 22:00:00 7.8 15 Sur 26 Sudeste 1.4 -- -- 93
2019-04-18 21:00:00 8.1 3 Norte 18 Noroeste 1 -- -- 92
2019-04-18 20:00:00 8 6 Noroeste 12 Noroeste 1 -- -- 94
2019-04-18 19:00:00 8 7 Norte 9 Norte 1.4 -- -- 93
2019-04-18 18:00:00 8.2 12 Sudeste 39 Sudeste 1.2 -- -- 90
2019-04-18 17:00:00 9.9 23 Sudeste 39 Este 0 -- -- 74
2019-04-18 16:00:00 10 34 Sudeste 47 Sudeste 0.2 -- -- 71
2019-04-18 15:00:00 9.9 23 Sudeste 41 Sudeste 0 -- -- 74
2019-04-18 14:00:00 9.4 20 Sudeste 33 Sudeste 0 -- -- 82
2019-04-18 13:00:00 9.5 29 Sudeste 43 Sudeste 0 -- -- 83
2019-04-18 12:00:00 10.1 14 Sudeste 22 Este 0 -- -- 84
2019-04-18 11:00:00 7.9 14 Nordeste 23 Sudeste 1 -- -- 95
2019-04-18 10:00:00 7.7 11 Sudeste 22 Sudeste 3.2 -- -- 96
2019-04-18 09:00:00 8.2 13 Sudeste 24 Este 4 -- -- 95
2019-04-18 08:00:00 8.9 14 Este 21 Sudeste 1 -- -- 91
2019-04-18 07:00:00 9.7 5 Nordeste 12 Nordeste 0.4 -- -- 87
2019-04-18 06:00:00 10.4 0 Calma 8 Este 0 -- -- 81
2019-04-18 05:00:00 10.8 5 Sur 20 Sur 0 -- -- 77
2019-04-18 04:00:00 10.9 9 Sudeste 15 Sur 0 -- -- 76
2019-04-18 03:00:00 10.6 14 Sudeste 20 Sur 0 -- -- 78
2019-04-18 02:00:00 11.9 13 Sur 17 Sur 0 -- -- 71
2019-04-18 01:00:00 12.3 5 Sudeste 32 Sudeste 0 -- -- 70
2019-04-18 00:00:00 12.8 12 Sur 36 Sudeste 0 -- -- 68
2019-04-17 23:00:00 13.4 22 Sudeste 46 Sudeste 0 -- -- 65
2019-04-17 22:00:00 12.6 32 Sudeste 50 Sudeste 0 -- -- 69
2019-04-17 21:00:00 13.4 35 Sudeste 54 Sudeste 0 -- -- 66
2019-04-17 20:00:00 14.9 42 Sudeste 55 Sudeste 0 -- -- 62
2019-04-17 19:00:00 16.1 37 Sudeste 52 Sudeste 0 -- -- 58
2019-04-17 18:00:00 16.8 32 Sudeste 45 Sudeste 0 -- -- 57
2019-04-17 17:00:00 16.2 32 Sudeste 44 Sudeste 0 -- -- 59
2019-04-17 16:00:00 17.4 26 Sudeste 42 Sudeste 0 -- -- 54
2019-04-17 15:00:00 18.5 22 Sur 36 Sur 0 -- -- 47
2019-04-17 14:00:00 17.5 22 Sur 37 Sur 0 -- -- 47
2019-04-17 13:00:00 15.4 25 Sudeste 33 Sur 0 -- -- 52
2019-04-17 12:00:00 15 32 Sur 45 Sur 0 -- -- 56
2019-04-17 11:00:00 12.9 19 Sur 26 Sur 0 -- -- 64
2019-04-17 10:00:00 10 18 Sudeste 30 Sudeste 0 -- -- 78
2019-04-17 09:00:00 8.5 18 Sur 24 Sur 0 -- -- 81
2019-04-17 08:00:00 7.9 15 Sur 29 Sudeste 0 -- -- 84
2019-04-17 07:00:00 8.1 24 Sudeste 34 Sudeste 0 -- -- 84
2019-04-17 06:00:00 8.1 24 Sur 40 Sudeste 0 -- -- 85
2019-04-17 05:00:00 8.7 24 Sudeste 38 Sudeste 0 -- -- 84
2019-04-17 04:00:00 9.1 26 Sudeste 40 Sudeste 0 -- -- 82
2019-04-17 03:00:00 9.6 22 Sudeste 37 Sudeste 0 -- -- 77
2019-04-17 02:00:00 9.9 18 Sudeste 31 Sudeste 0 -- -- 73
2019-04-17 01:00:00 10.1 13 Sudeste 35 Sudeste 0 -- -- 66
2019-04-17 00:00:00 10.2 23 Sudeste 35 Sudeste 0 -- -- 63
2019-04-16 23:00:00 10.6 23 Sudeste 37 Sudeste 0 -- -- 63
2019-04-16 22:00:00 11.4 24 Sudeste 35 Sudeste 0 -- -- 64
2019-04-16 21:00:00 12.7 19 Sudeste 29 Sudeste 0 -- -- 59
2019-04-16 20:00:00 15.3 22 Sudeste 27 Sudeste 0 -- -- 50
2019-04-16 19:00:00 16.4 15 Sudeste 23 Sur 0 -- -- 44
2019-04-16 18:00:00 16.9 12 Sur 27 Sur 0 -- -- 38
2019-04-16 17:00:00 17.4 15 Sur 33 Sudoeste 0 -- -- 39
2019-04-16 16:00:00 17.2 12 Sudoeste 30 Sur 0 -- -- 33
2019-04-16 15:00:00 15.6 13 Sur 28 Sur 0 -- -- 46
2019-04-16 14:00:00 15.2 4 Sudoeste 22 Sudoeste 0 -- -- 49
2019-04-16 13:00:00 14.9 7 Sudoeste 15 Sudoeste 0 -- -- 49
2019-04-16 12:00:00 14.2 4 Este 11 Sur 0 -- -- 53
2019-04-16 11:00:00 12.4 5 Nordeste 10 Nordeste 0 -- -- 65
2019-04-16 10:00:00 10.6 4 Oeste 8 Oeste 0 -- -- 74
2019-04-16 09:00:00 8.1 4 Sudeste 10 Nordeste 0 -- -- 84
2019-04-16 08:00:00 6.7 9 Nordeste 13 Nordeste 0 -- -- 92
2019-04-16 07:00:00 5.8 12 Nordeste 14 Nordeste 0 -- -- 91
2019-04-16 06:00:00 7 12 Nordeste 22 Nordeste 0 -- -- 92
2019-04-16 05:00:00 7.2 13 Nordeste 24 Nordeste 0 -- -- 89
2019-04-16 04:00:00 7.1 18 Nordeste 23 Nordeste 0 -- -- 93
2019-04-16 03:00:00 7.3 19 Nordeste 33 Nordeste 0 -- -- 95
2019-04-16 02:00:00 7.9 23 Nordeste 33 Nordeste 0 -- -- 95
2019-04-16 01:00:00 8.9 18 Norte 37 Norte 0 -- -- 73
2019-04-16 00:00:00 10 22 Norte 40 Norte 0 -- -- 67
2019-04-15 23:00:00 10.4 22 Norte 33 Noroeste 0 -- -- 76
2019-04-15 22:00:00 11.3 30 Norte 47 Norte 0 -- -- 80
2019-04-15 21:00:00 13.1 32 Noroeste 54 Norte 0 -- -- 72
2019-04-15 20:00:00 18.3 29 Oeste 47 Oeste 0 -- -- 47
2019-04-15 19:00:00 18.6 19 Oeste 29 Oeste 0 -- -- 60
2019-04-15 18:00:00 15 15 Oeste 52 Oeste 7 -- -- 73
2019-04-15 17:00:00 19.1 30 Sudoeste 46 Sudoeste 0 -- -- 48
2019-04-15 16:00:00 19.7 33 Sudoeste 52 Sudoeste 0 -- -- 49
2019-04-15 15:00:00 20 37 Sudoeste 53 Sudoeste 0 -- -- 47
2019-04-15 14:00:00 18.8 30 Sudoeste 45 Sudoeste 0 -- -- 54
2019-04-15 13:00:00 17.7 26 Sudoeste 39 Sudoeste 0 -- -- 59
2019-04-15 12:00:00 17.8 24 Sudoeste 32 Sudoeste 0 -- -- 61
2019-04-15 11:00:00 16.1 15 Sur 20 Sur 0 -- -- 63
2019-04-15 10:00:00 14.1 14 Sur 21 Sur 0 -- -- 69
2019-04-15 09:00:00 11 3 Sur 10 Sudeste 0 -- -- 83
2019-04-15 08:00:00 7.7 2 Sudeste 5 Sudoeste 0 -- -- 91
2019-04-15 07:00:00 7.4 0 Calma 13 Norte 0 -- -- 91
2019-04-15 06:00:00 6.6 11 Norte 13 Norte 0 -- -- 92
2019-04-15 05:00:00 7.7 3 Nordeste 6 Nordeste 0 -- -- 90
2019-04-15 04:00:00 7.6 2 Norte 5 Norte 0 -- -- 90
2019-04-15 03:00:00 7.9 0 Calma 6 Norte 0 -- -- 88
2019-04-15 02:00:00 9.1 5 Nordeste 6 Nordeste 0 -- -- 87
2019-04-15 01:00:00 9.4 2 Sudeste 9 Norte 0 -- -- 82
2019-04-15 00:00:00 10.2 5 Este 9 Norte 0 -- -- 78
2019-04-14 23:00:00 11.5 7 Nordeste 12 Nordeste 0 -- -- 77
2019-04-14 22:00:00 12.2 5 Nordeste 18 Nordeste 0 -- -- 74
2019-04-14 21:00:00 14.9 16 Nordeste 31 Nordeste 0 -- -- 63
2019-04-14 20:00:00 17.5 12 Nordeste 20 Nordeste 0 -- -- 50
2019-04-14 19:00:00 19.2 6 Noroeste 24 Noroeste 0 -- -- 48
2019-04-14 18:00:00 19.5 13 Noroeste 26 Noroeste 0 -- -- 49
2019-04-14 17:00:00 19.3 17 Noroeste 31 Noroeste 0 -- -- 49
2019-04-14 16:00:00 18.7 23 Noroeste 48 Oeste 0 -- -- 51
2019-04-14 15:00:00 17.9 23 Noroeste 39 Oeste 0 -- -- 54
2019-04-14 14:00:00 17.3 27 Noroeste 41 Noroeste 0 -- -- 55
2019-04-14 13:00:00 16.3 19 Oeste 33 Noroeste 0 -- -- 59
2019-04-14 12:00:00 15.2 17 Noroeste 32 Noroeste 0 -- -- 60
2019-04-14 11:00:00 12.9 20 Noroeste 31 Noroeste 0 -- -- 68
2019-04-14 10:00:00 11 20 Noroeste 32 Noroeste 0 -- -- 73
2019-04-14 09:00:00 9.8 18 Noroeste 28 Noroeste 0 -- -- 74
2019-04-14 08:00:00 8.7 18 Noroeste 26 Noroeste 0 -- -- 69
2019-04-14 07:00:00 7.7 9 Norte 23 Noroeste 0 -- -- 63
2019-04-14 06:00:00 7.8 17 Noroeste 26 Oeste 0 -- -- 53
2019-04-14 05:00:00 6.8 4 Sur 14 Oeste 0 -- -- 54
2019-04-14 04:00:00 5 3 Norte 8 Noroeste 0 -- -- 58
2019-04-14 03:00:00 4.7 0 Calma 13 Nordeste 0 -- -- 56
2019-04-14 02:00:00 7 9 Nordeste 12 Norte 0 -- -- 47
2019-04-14 01:00:00 7.6 6 Norte 15 Norte 0 -- -- 40
2019-04-14 00:00:00 8.8 12 Norte 15 Norte 0 -- -- 34
2019-04-13 23:00:00 9.9 12 Norte 33 Noroeste 0 -- -- 27
2019-04-13 22:00:00 11.4 21 Noroeste 27 Noroeste 0 -- -- 29
2019-04-13 21:00:00 12.6 13 Noroeste 23 Oeste 0 -- -- 26
2019-04-13 20:00:00 17 15 Oeste 24 Oeste 0 -- -- 19
2019-04-13 19:00:00 18.6 13 Oeste 26 Oeste 0 -- -- 13
2019-04-13 18:00:00 18.5 12 Noroeste 25 Noroeste 0 -- -- 15
2019-04-13 17:00:00 18.6 7 Noroeste 23 Oeste 0 -- -- 11
2019-04-13 16:00:00 18.3 6 Nordeste 19 Nordeste 0 -- -- 11
2019-04-13 15:00:00 16.7 11 Norte 24 Norte 0 -- -- 12
2019-04-13 14:00:00 15.9 12 Norte 28 Norte 0 -- -- 15
2019-04-13 13:00:00 14.6 13 Norte 20 Norte 0 -- -- 19
2019-04-13 12:00:00 13 11 Norte 20 Noroeste 0 -- -- 23
2019-04-13 11:00:00 9.9 12 Norte 16 Norte 0 -- -- 28
2019-04-13 10:00:00 6.3 8 Norte 15 Norte 0 -- -- 51
2019-04-13 09:00:00 3.1 12 Norte 15 Norte 0 -- -- 55
2019-04-13 08:00:00 0.3 12 Norte 17 Norte 0 -- -- 62
2019-04-13 07:00:00 0.6 13 Norte 17 Norte 0 -- -- 60
2019-04-13 06:00:00 0.2 8 Norte 13 Norte 0 -- -- 57
2019-04-13 05:00:00 0.6 11 Norte 15 Noroeste 0 -- -- 62
2019-04-13 04:00:00 0.4 4 Norte 10 Noroeste 0 -- -- 59
2019-04-13 03:00:00 2.4 4 Norte 15 Nordeste 0 -- -- 50
2019-04-13 02:00:00 2.8 11 Norte 18 Norte 0 -- -- 50
2019-04-13 01:00:00 2.5 9 Norte 18 Noroeste 0 -- -- 59
2019-04-13 00:00:00 3.8 11 Norte 33 Norte 0 -- -- 58
2019-04-12 23:00:00 6.8 22 Norte 29 Nordeste 0 -- -- 51
2019-04-12 22:00:00 6.9 23 Nordeste 33 Norte 0 -- -- 56
2019-04-12 21:00:00 8.6 27 Norte 41 Nordeste 0 -- -- 50
2019-04-12 20:00:00 11.6 26 Nordeste 37 Nordeste 0 -- -- 42
2019-04-12 19:00:00 13 26 Nordeste 37 Nordeste 0 -- -- 39
2019-04-12 18:00:00 13.4 26 Nordeste 40 Nordeste 0 -- -- 39
2019-04-12 17:00:00 13 28 Nordeste 39 Nordeste 0 -- -- 39
2019-04-12 16:00:00 12.6 30 Nordeste 42 Nordeste 0 -- -- 46
2019-04-12 15:00:00 11.5 25 Nordeste 41 Nordeste 0 -- -- 45
2019-04-12 14:00:00 9.9 27 Nordeste 43 Nordeste 0 -- -- 49
2019-04-12 13:00:00 9 21 Norte 35 Nordeste 0 -- -- 53
2019-04-12 12:00:00 8.1 24 Norte 42 Nordeste 0 -- -- 57
2019-04-12 11:00:00 6.3 30 Norte 44 Norte 0 -- -- 63
2019-04-12 10:00:00 5.5 26 Norte 37 Norte 0 -- -- 68
2019-04-12 09:00:00 4.4 16 Norte 24 Norte 0 -- -- 76
2019-04-12 08:00:00 1 9 Norte 12 Norte 0 -- -- 85
2019-04-12 07:00:00 1.9 6 Noroeste 28 Norte 0 -- -- 84
2019-04-12 06:00:00 2.9 30 Norte 38 Norte 0 -- -- 81
2019-04-12 05:00:00 2.7 26 Norte 35 Norte 0 -- -- 83
2019-04-12 04:00:00 2.2 22 Norte 30 Norte 0 -- -- 83
2019-04-12 03:00:00 1.6 13 Norte 26 Norte 0 -- -- 84
2019-04-12 02:00:00 3.1 20 Norte 38 Norte 0 -- -- 79
2019-04-12 01:00:00 2.9 7 Noroeste 33 Norte 0 -- -- 80
2019-04-12 00:00:00 4.6 31 Norte 49 Norte 0 -- -- 75
2019-04-11 23:00:00 5.2 37 Norte 46 Norte 0 -- -- 76
2019-04-11 22:00:00 5 32 Norte 44 Norte 0 -- -- 79
2019-04-11 21:00:00 5.4 21 Norte 45 Nordeste 0 -- -- 79
2019-04-11 20:00:00 7.7 36 Norte 53 Norte 0 -- -- 69
2019-04-11 19:00:00 9.1 41 Norte 51 Norte 0 -- -- 56
2019-04-11 18:00:00 9.8 31 Norte 50 Norte 0 -- -- 59
2019-04-11 17:00:00 10.5 34 Norte 46 Norte 0 -- -- 55
2019-04-11 16:00:00 8.8 31 Norte 42 Norte 0 -- -- 58
2019-04-11 15:00:00 8.4 32 Norte 48 Norte 0 -- -- 58
2019-04-11 14:00:00 8.5 28 Norte 43 Norte 0 -- -- 61
2019-04-11 13:00:00 7.5 28 Norte 41 Norte 0 -- -- 64
2019-04-11 12:00:00 7.7 28 Norte 44 Norte 0 -- -- 56
2019-04-11 11:00:00 7 28 Norte 44 Norte 0 -- -- 59
2019-04-11 10:00:00 5.9 28 Norte 39 Norte 0 -- -- 66
2019-04-11 09:00:00 2.8 12 Norte 19 Norte 0 -- -- 86
2019-04-11 08:00:00 1.2 10 Norte 27 Norte 0 -- -- 88
2019-04-11 07:00:00 2 15 Norte 22 Norte 0 -- -- 86
2019-04-11 06:00:00 2.4 14 Norte 30 Norte 0 -- -- 86
2019-04-11 05:00:00 3.6 21 Norte 31 Nordeste 0 -- -- 82
2019-04-11 04:00:00 3.6 19 Norte 27 Norte 0 -- -- 82
2019-04-11 03:00:00 2.9 19 Norte 28 Norte 0 -- -- 85
2019-04-11 02:00:00 3.2 18 Norte 30 Norte 0 -- -- 84
2019-04-11 01:00:00 3.8 32 Norte 41 Norte 0 -- -- 82
2019-04-11 00:00:00 3.9 26 Norte 33 Norte 0 -- -- 84
2019-04-10 23:00:00 3.9 17 Nordeste 31 Norte 0 -- -- 81
2019-04-10 22:00:00 4.7 28 Norte 49 Norte 0 -- -- 79
2019-04-10 21:00:00 5.6 27 Norte 47 Nordeste 0 -- -- 77
2019-04-10 20:00:00 6.8 31 Nordeste 50 Nordeste 0 -- -- 72
2019-04-10 19:00:00 8.3 36 Nordeste 46 Nordeste 0 -- -- 63
2019-04-10 18:00:00 8.9 26 Nordeste 40 Nordeste 0 -- -- 56
2019-04-10 17:00:00 8.8 31 Nordeste 40 Nordeste 0 -- -- 60
2019-04-10 16:00:00 9.1 26 Nordeste 43 Nordeste 0 -- -- 58
2019-04-10 15:00:00 8.6 23 Nordeste 38 Nordeste 0 -- -- 61
2019-04-10 14:00:00 7.2 5 Noroeste 21 Norte 0.8 -- -- 83
2019-04-10 13:00:00 4 24 Norte 42 Nordeste 0.4 -- -- 85
2019-04-10 12:00:00 6.5 22 Noroeste 35 Noroeste 0 -- -- 76
2019-04-10 11:00:00 5.4 26 Noroeste 39 Noroeste 0 -- -- 78
2019-04-10 10:00:00 5.1 24 Norte 37 Norte 0 -- -- 80
2019-04-10 09:00:00 4.2 14 Norte 25 Noroeste 0 -- -- 87
2019-04-10 08:00:00 2.7 15 Noroeste 23 Noroeste 0 -- -- 93
2019-04-10 07:00:00 2.4 15 Noroeste 25 Noroeste 0 -- -- 94
2019-04-10 06:00:00 2.4 15 Noroeste 21 Noroeste 0 -- -- 92
2019-04-10 05:00:00 2.5 10 Norte 22 Norte 0 -- -- 94
2019-04-10 04:00:00 2.5 12 Noroeste 24 Noroeste 0 -- -- 93
2019-04-10 03:00:00 2.9 16 Noroeste 27 Noroeste 0 -- -- 90
2019-04-10 02:00:00 3.6 18 Noroeste 34 Norte 0 -- -- 89
2019-04-10 01:00:00 3.6 17 Norte 27 Norte 0.2 -- -- 89
2019-04-10 00:00:00 3.1 21 Norte 44 Norte 0.2 -- -- 92
2019-04-09 23:00:00 4.7 14 Noroeste 24 Noroeste 0.4 -- -- 88
2019-04-09 22:00:00 5 12 Noroeste 21 Noroeste 0 -- -- 85
2019-04-09 21:00:00 5.6 18 Noroeste 32 Noroeste 0 -- -- 82
2019-04-09 20:00:00 6.1 22 Norte 45 Noroeste 0 -- -- 75
2019-04-09 19:00:00 6 28 Noroeste 42 Noroeste 0.6 -- -- 82
2019-04-09 18:00:00 6.3 15 Noroeste 33 Noroeste 0 -- -- 80
2019-04-09 17:00:00 5.5 26 Noroeste 43 Noroeste 0 -- -- 84
2019-04-09 16:00:00 5.3 14 Sudoeste 27 Noroeste 1 -- -- 83
2019-04-09 15:00:00 5.6 16 Sudoeste 40 Oeste 0 -- -- 85
2019-04-09 14:00:00 8 20 Oeste 41 Oeste 0 -- -- 67
2019-04-09 13:00:00 8.1 22 Oeste 33 Oeste 0 -- -- 66
2019-04-09 12:00:00 7.8 17 Noroeste 34 Oeste 0 -- -- 68
2019-04-09 11:00:00 6.4 21 Oeste 31 Oeste 0 -- -- 70
2019-04-09 10:00:00 5.8 15 Oeste 28 Noroeste 0 -- -- 80
2019-04-09 09:00:00 4.9 19 Noroeste 30 Noroeste 0 -- -- 82
2019-04-09 08:00:00 3.5 22 Noroeste 41 Noroeste 0 -- -- 89
2019-04-09 07:00:00 3.7 20 Noroeste 29 Noroeste 0 -- -- 88
2019-04-09 06:00:00 3.8 10 Noroeste 27 Noroeste 0 -- -- 88
2019-04-09 05:00:00 3.9 13 Noroeste 20 Noroeste 0 -- -- 89
2019-04-09 04:00:00 4.5 16 Noroeste 24 Noroeste 0 -- -- 86
2019-04-09 03:00:00 4.6 10 Oeste 22 Noroeste 0 -- -- 84
2019-04-09 02:00:00 4.3 5 Sudoeste 15 Oeste 0 -- -- 89
2019-04-09 01:00:00 4.8 13 Sudoeste 23 Sur 0 -- -- 86
2019-04-09 00:00:00 5.2 18 Sur 25 Sur 0 -- -- 85
2019-04-08 23:00:00 6.8 16 Sur 22 Sur 0 -- -- 77
2019-04-08 22:00:00 7.6 12 Noroeste 22 Noroeste 0 -- -- 68
2019-04-08 21:00:00 8.4 17 Noroeste 26 Noroeste 0 -- -- 62
2019-04-08 20:00:00 11.6 16 Noroeste 35 Noroeste 0 -- -- 45
2019-04-08 19:00:00 12.4 22 Noroeste 37 Noroeste 0 -- -- 45
2019-04-08 18:00:00 11.3 21 Noroeste 37 Noroeste 0 -- -- 52
2019-04-08 17:00:00 11.7 23 Noroeste 44 Noroeste 0 -- -- 55
2019-04-08 16:00:00 10.5 33 Noroeste 49 Noroeste 0 -- -- 65
2019-04-08 15:00:00 10.2 34 Noroeste 48 Noroeste 0 -- -- 64
2019-04-08 14:00:00 9.2 22 Noroeste 41 Noroeste 0.2 -- -- 72
2019-04-08 13:00:00 8.6 21 Oeste 34 Noroeste 0 -- -- 76
2019-04-08 12:00:00 9.8 25 Oeste 37 Noroeste 0.2 -- -- 76
2019-04-08 11:00:00 8.3 23 Oeste 35 Oeste 0 -- -- 84
2019-04-08 10:00:00 6.4 16 Sudoeste 24 Oeste 0 -- -- 91
2019-04-08 09:00:00 5.7 12 Oeste 20 Oeste 0 -- -- 92
2019-04-08 08:00:00 5.2 11 Oeste 26 Oeste 0 -- -- 92
2019-04-08 07:00:00 5.3 15 Oeste 27 Oeste 0 -- -- 92
2019-04-08 06:00:00 5.2 11 Oeste 27 Oeste 0 -- -- 92
2019-04-08 05:00:00 5.1 15 Oeste 25 Oeste 0 -- -- 92
2019-04-08 04:00:00 4.5 12 Sudoeste 19 Oeste 0 -- -- 96
2019-04-08 03:00:00 3.9 10 Sur 15 Sur 0 -- -- 94
2019-04-08 02:00:00 3.9 12 Sur 15 Sur 0.2 -- -- 91
2019-04-08 01:00:00 4 10 Oeste 25 Oeste 0 -- -- 89
2019-04-08 00:00:00 5 15 Oeste 31 Oeste 0 -- -- 79
2019-04-07 23:00:00 5.7 24 Oeste 36 Sudoeste 0 -- -- 72
2019-04-07 22:00:00 7.1 12 Oeste 18 Sudoeste 0 -- -- 61
2019-04-07 21:00:00 7.4 7 Noroeste 18 Noroeste 0 -- -- 56
2019-04-07 20:00:00 8 10 Noroeste 27 Noroeste 0 -- -- 55
2019-04-07 19:00:00 8.5 18 Noroeste 32 Oeste 0 -- -- 51
2019-04-07 18:00:00 8.6 22 Noroeste 35 Noroeste 0 -- -- 52
2019-04-07 17:00:00 8.2 24 Noroeste 36 Oeste 0 -- -- 52
2019-04-07 16:00:00 7.8 25 Noroeste 43 Noroeste 0 -- -- 65
2019-04-07 15:00:00 7.5 27 Noroeste 38 Oeste 0 -- -- 60
2019-04-07 14:00:00 6.2 26 Noroeste 47 Noroeste 0 -- -- 63
2019-04-07 13:00:00 5.9 25 Noroeste 41 Noroeste 0 -- -- 70
2019-04-07 12:00:00 4.2 29 Noroeste 41 Noroeste 0 -- -- 74
2019-04-07 11:00:00 3.5 27 Noroeste 38 Noroeste 0 -- -- 75
2019-04-07 10:00:00 2.4 25 Noroeste 36 Noroeste 0 -- -- 80
2019-04-07 09:00:00 1.7 22 Noroeste 30 Noroeste 0 -- -- 85
2019-04-07 08:00:00 1.4 18 Noroeste 28 Noroeste 0 -- -- 88
2019-04-07 07:00:00 1.7 16 Noroeste 28 Noroeste 0 -- -- 88
2019-04-07 06:00:00 1.4 19 Noroeste 35 Noroeste 0 -- -- 88
2019-04-07 05:00:00 1.9 24 Noroeste 37 Noroeste 0 -- -- 88
2019-04-07 04:00:00 1.9 22 Noroeste 42 Noroeste 0 -- -- 87
2019-04-07 03:00:00 2.5 22 Noroeste 36 Noroeste 0 -- -- 88
2019-04-07 02:00:00 2.4 15 Noroeste 26 Noroeste 0 -- -- 88
2019-04-07 01:00:00 1.6 14 Noroeste 30 Noroeste 0.2 -- -- 91
2019-04-07 00:00:00 1.8 18 Noroeste 32 Noroeste 0 -- -- 92
2019-04-06 23:00:00 1.7 6 Oeste 45 Oeste 1.2 -- -- 93
2019-04-06 22:00:00 2.1 4 Sudoeste 20 Noroeste 0 -- -- 93
2019-04-06 21:00:00 2.4 21 Noroeste 32 Noroeste 0.6 -- -- 90
2019-04-06 20:00:00 3 13 Noroeste 38 Oeste 0.6 -- -- 89
2019-04-06 19:00:00 3.3 23 Noroeste 52 Noroeste 0.8 -- -- 85
2019-04-06 18:00:00 6.4 28 Noroeste 49 Oeste 0.2 -- -- 69
2019-04-06 17:00:00 6.4 22 Noroeste 43 Noroeste 0 -- -- 73
2019-04-06 16:00:00 3.8 22 Noroeste 42 Noroeste 0.4 -- -- 87
2019-04-06 15:00:00 5.7 29 Oeste 46 Oeste 0 -- -- 67
2019-04-06 14:00:00 5.1 33 Oeste 47 Oeste 0 -- -- 73
2019-04-06 13:00:00 4.8 30 Oeste 41 Sudoeste 0.2 -- -- 72
2019-04-06 12:00:00 2.8 28 Oeste 40 Oeste 0 -- -- 84
2019-04-06 11:00:00 2.5 24 Oeste 35 Oeste 0 -- -- 80
2019-04-06 10:00:00 2.5 19 Oeste 30 Noroeste 0 -- -- 82
2019-04-06 09:00:00 1.7 24 Noroeste 37 Noroeste 0 -- -- 87
2019-04-06 08:00:00 1.3 20 Noroeste 36 Noroeste 0 -- -- 90
2019-04-06 07:00:00 1.2 20 Noroeste 30 Oeste 0 -- -- 91
2019-04-06 06:00:00 0.8 12 Oeste 29 Noroeste 0 -- -- 93
2019-04-06 05:00:00 0.8 12 Oeste 34 Noroeste 0 -- -- 93
2019-04-06 04:00:00 1.4 22 Noroeste 34 Noroeste 0.2 -- -- 90
2019-04-06 03:00:00 1.5 16 Noroeste 32 Noroeste 0 -- -- 90
2019-04-06 02:00:00 1.1 19 Noroeste 27 Oeste 0 -- -- 91
2019-04-06 01:00:00 0.5 17 Noroeste 31 Noroeste 0 -- -- 93
2019-04-06 00:00:00 1 19 Noroeste 39 Noroeste 0 -- -- 92
2019-04-05 23:00:00 1.7 8 Noroeste 15 Noroeste 0.2 -- -- 96
2019-04-05 22:00:00 1.2 0 Calma 15 Noroeste 0.4 -- -- 97
2019-04-05 21:00:00 0.5 10 Norte 14 Norte 0.2 -- -- 97
2019-04-05 20:00:00 0.3 4 Nordeste 22 Noroeste 1 -- -- 96
2019-04-05 19:00:00 1.3 16 Noroeste 28 Noroeste 0 -- -- 93
2019-04-05 18:00:00 1.9 14 Noroeste 33 Sudoeste 0.4 -- -- 92
2019-04-05 17:00:00 7.5 22 Sudoeste 32 Sur 0 -- -- 73
2019-04-05 16:00:00 5.2 23 Sudoeste 31 Sudoeste 0.2 -- -- 86
2019-04-05 15:00:00 4.1 25 Sur 39 Sudoeste 0.2 -- -- 86
2019-04-05 14:00:00 5.7 19 Sudoeste 39 Sudoeste 0 -- -- 75
2019-04-05 13:00:00 5.5 24 Sudoeste 38 Sudoeste 0 -- -- 77
2019-04-05 12:00:00 5.6 28 Sudoeste 43 Sudoeste 0 -- -- 77
2019-04-05 11:00:00 4.9 23 Sudoeste 34 Sudoeste 0 -- -- 81
2019-04-05 10:00:00 3.7 19 Sur 29 Sudoeste 0.2 -- -- 87
2019-04-05 09:00:00 3 18 Sudoeste 36 Sudoeste 0.2 -- -- 89
2019-04-05 08:00:00 3 19 Sudoeste 34 Sudoeste 0 -- -- 86
2019-04-05 07:00:00 3 17 Sudoeste 29 Sudoeste 0 -- -- 85
2019-04-05 06:00:00 3.8 21 Sudoeste 33 Sudoeste 0 -- -- 75
2019-04-05 05:00:00 4.6 14 Sudoeste 32 Oeste 0 -- -- 56
2019-04-05 04:00:00 4.1 6 Sur 15 Sur 0 -- -- 58
2019-04-05 03:00:00 4.3 13 Sur 16 Sur 0 -- -- 54
2019-04-05 02:00:00 4.4 5 Sur 6 Sur 0 -- -- 53
2019-04-05 01:00:00 4.5 3 Sur 15 Sur 0 -- -- 52
2019-04-05 00:00:00 4.6 10 Sur 19 Sur 0 -- -- 51
2019-04-04 23:00:00 5.3 17 Sur 19 Sur 0 -- -- 46
2019-04-04 22:00:00 6 12 Sudoeste 18 Sudoeste 0 -- -- 43
2019-04-04 21:00:00 7.4 14 Sudoeste 30 Sudoeste 0 -- -- 37
2019-04-04 20:00:00 8.3 23 Sudoeste 38 Oeste 0 -- -- 30
2019-04-04 19:00:00 9 28 Oeste 44 Sudoeste 0 -- -- 32
2019-04-04 18:00:00 10.4 24 Oeste 42 Sudoeste 0 -- -- 32
2019-04-04 17:00:00 10.5 15 Oeste 35 Oeste 0 -- -- 37
2019-04-04 16:00:00 8.6 21 Oeste 32 Oeste 0 -- -- 37
2019-04-04 15:00:00 7.5 14 Oeste 26 Oeste 0 -- -- 43
2019-04-04 14:00:00 5.6 15 Noroeste 32 Oeste 0 -- -- 50
2019-04-04 13:00:00 4.9 14 Oeste 29 Oeste 0 -- -- 59
2019-04-04 12:00:00 3.3 18 Noroeste 28 Noroeste 0 -- -- 61
2019-04-04 11:00:00 1.6 11 Noroeste 22 Oeste 0 -- -- 74
2019-04-04 10:00:00 -0.3 11 Noroeste 17 Noroeste 0 -- -- 74
2019-04-04 09:00:00 -0.8 5 Norte 21 Oeste 0 -- -- 76
2019-04-04 08:00:00 -2.8 8 Noroeste 16 Oeste 0 -- -- 84
2019-04-04 07:00:00 -2.9 3 Noroeste 22 Oeste 0 -- -- 83
2019-04-04 06:00:00 -1.8 13 Noroeste 24 Oeste 0 -- -- 79
2019-04-04 05:00:00 -1.9 7 Noroeste 15 Noroeste 0 -- -- 83
2019-04-04 04:00:00 -2.2 4 Nordeste 8 Noroeste 0 -- -- 89
2019-04-04 03:00:00 -2.4 0 Calma 6 Este 0 -- -- 89
2019-04-04 02:00:00 -1.3 0 Calma 5 Sudoeste 0 -- -- 81
2019-04-04 01:00:00 -0.8 3 Norte 10 Norte 0 -- -- 82
2019-04-04 00:00:00 -0.9 9 Norte 10 Norte 0 -- -- 85
2019-04-03 23:00:00 0.1 6 Norte 24 Norte 0 -- -- 81
2019-04-03 22:00:00 1.2 14 Norte 19 Norte 0 -- -- 88
2019-04-03 21:00:00 0.4 6 Nordeste 37 Norte 0 -- -- 96
2019-04-03 20:00:00 1 28 Norte 65 Norte 0 -- -- 92
2019-04-03 19:00:00 3.5 21 Nordeste 44 Nordeste 0.6 -- -- 82
2019-04-03 18:00:00 4.3 28 Nordeste 45 Nordeste 0 -- -- 77
2019-04-03 17:00:00 9.4 28 Noroeste 48 Noroeste 0 -- -- 41
2019-04-03 16:00:00 9 26 Noroeste 43 Noroeste 0 -- -- 46
2019-04-03 15:00:00 8.2 30 Noroeste 52 Noroeste 0 -- -- 55
2019-04-03 14:00:00 6.8 37 Noroeste 51 Noroeste 0.2 -- -- 63
2019-04-03 13:00:00 6.3 33 Noroeste 43 Norte 0 -- -- 73
2019-04-03 12:00:00 5.4 15 Noroeste 24 Noroeste 0 -- -- 83
2019-04-03 11:00:00 4.9 18 Noroeste 26 Noroeste 0 -- -- 86
2019-04-03 10:00:00 5 15 Noroeste 23 Noroeste 0 -- -- 88
2019-04-03 09:00:00 4 14 Noroeste 24 Noroeste 0 -- -- 92
2019-04-03 08:00:00 3.8 19 Noroeste 30 Noroeste 0 -- -- 88
2019-04-03 07:00:00 4.6 17 Noroeste 30 Noroeste 0 -- -- 81
2019-04-03 06:00:00 4.4 19 Noroeste 29 Noroeste 0 -- -- 84
2019-04-03 05:00:00 3.5 7 Noroeste 10 Noroeste 0 -- -- 97
2019-04-03 04:00:00 3.9 3 Sur 6 Sur 0 -- -- 98
2019-04-03 03:00:00 4.2 4 Sur 9 Sur 0 -- -- 96
2019-04-03 02:00:00 4.8 0 Calma 7 Sur 0 -- -- 96
2019-04-03 01:00:00 5.8 0 Calma 9 Sur 0 -- -- 93
2019-04-03 00:00:00 6.1 8 Sur 9 Sur 0 -- -- 92
2019-04-02 23:00:00 5.9 5 Sur 7 Sur 0 -- -- 92
2019-04-02 22:00:00 6.1 4 Sudeste 7 Sur 0 -- -- 91
2019-04-02 21:00:00 7.7 4 Sudeste 17 Sudoeste 0 -- -- 83
2019-04-02 20:00:00 9.2 8 Sur 28 Nordeste 0.8 -- -- 76
2019-04-02 19:00:00 7.7 23 Nordeste 36 Nordeste 0.2 -- -- 84
2019-04-02 18:00:00 11.5 18 Nordeste 23 Nordeste 0 -- -- 65
2019-04-02 17:00:00 10.1 13 Nordeste 32 Nordeste 2.4 -- -- 73
2019-04-02 16:00:00 9.2 29 Nordeste 51 Norte 0 -- -- 73
2019-04-02 15:00:00 13.7 8 Noroeste 15 Oeste 0 -- -- 59
2019-04-02 14:00:00 13.1 3 Nordeste 14 Oeste 0 -- -- 62
2019-04-02 13:00:00 11.5 5 Sudoeste 12 Oeste 0 -- -- 76
2019-04-02 12:00:00 8.6 5 Nordeste 16 Norte 0 -- -- 83
2019-04-02 11:00:00 7.9 10 Norte 17 Noroeste 0 -- -- 86
2019-04-02 10:00:00 7.3 9 Nordeste 13 Nordeste 0 -- -- 92
2019-04-02 09:00:00 5.7 4 Norte 10 Nordeste 0 -- -- 97
2019-04-02 08:00:00 5.1 4 Nordeste 6 Nordeste 0 -- -- 98
2019-04-02 07:00:00 4.8 5 Norte 10 Norte 0 -- -- 98
2019-04-02 06:00:00 4.5 3 Nordeste 9 Norte 0 -- -- 98
2019-04-02 05:00:00 4.2 9 Nordeste 9 Nordeste 0 -- -- 99
2019-04-02 04:00:00 5.4 0 Calma 9 Nordeste 0 -- -- 98
2019-04-02 03:00:00 5.3 2 Norte 9 Nordeste 0 -- -- 97
2019-04-02 02:00:00 5.4 7 Norte 9 Norte 0 -- -- 96
2019-04-02 01:00:00 6.5 4 Norte 9 Norte 0 -- -- 95
2019-04-02 00:00:00 7.2 3 Este 5 Sudeste 0 -- -- 93
2019-04-01 23:00:00 7.4 4 Sudeste 14 Sudeste 0 -- -- 92
2019-04-01 22:00:00 7.6 14 Sudeste 21 Sudeste 0 -- -- 91
2019-04-01 21:00:00 8 11 Sudeste 23 Sudeste 0 -- -- 90
2019-04-01 20:00:00 7.9 10 Sudeste 20 Sudeste 3 -- -- 90
2019-04-01 19:00:00 7.4 14 Oeste 40 Sur 6.2 -- -- 87
2019-04-01 18:00:00 12.1 10 Sur 15 Sur 0 -- -- 68
2019-04-01 17:00:00 14.2 4 Sur 23 Noroeste 0 -- -- 59
2019-04-01 16:00:00 12.5 11 Sudoeste 22 Sur 0 -- -- 64
2019-04-01 15:00:00 12.4 4 Sudoeste 13 Sudeste 0 -- -- 65
2019-04-01 14:00:00 10.5 8 Sur 17 Sur 0 -- -- 74
2019-04-01 13:00:00 10.8 10 Sur 18 Sur 0 -- -- 72
2019-04-01 12:00:00 9.8 8 Sur 19 Sur 0 -- -- 77
2019-04-01 11:00:00 7.3 11 Sur 17 Sudeste 0 -- -- 87
2019-04-01 10:00:00 5.8 7 Sudeste 13 Sudeste 0 -- -- 93
2019-04-01 09:00:00 4.9 10 Sudeste 15 Sudeste 0 -- -- 94
2019-04-01 08:00:00 4.7 11 Este 17 Este 0 -- -- 95
2019-04-01 07:00:00 4.7 11 Sudeste 15 Este 0 -- -- 95
2019-04-01 06:00:00 4.9 10 Sudeste 15 Sudeste 0 -- -- 94
2019-04-01 05:00:00 5.1 7 Sudeste 14 Sur 0 -- -- 94
2019-04-01 04:00:00 5.1 8 Sur 18 Este 0 -- -- 93
2019-04-01 03:00:00 4.8 6 Sudeste 17 Este 0 -- -- 93
2019-04-01 02:00:00 4.8 9 Sudeste 14 Este 0 -- -- 93
2019-04-01 01:00:00 4.6 5 Este 11 Este 0 -- -- 92
2019-04-01 00:00:00 4.6 9 Sudeste 14 Sudeste 0.2 -- -- 89
2019-03-31 23:00:00 4.4 3 Este 19 Este 0.2 -- -- 90
2019-03-31 22:00:00 4.5 11 Este 21 Este 0.2 -- -- 89
2019-03-31 21:00:00 4.9 12 Sudeste 19 Este 0.2 -- -- 88
2019-03-31 20:00:00 5.3 13 Sudeste 22 Este 0.8 -- -- 86
2019-03-31 19:00:00 5.9 11 Este 28 Este 0.4 -- -- 86
2019-03-31 18:00:00 6.5 18 Este 25 Este 0.2 -- -- 78
2019-03-31 17:00:00 8.1 16 Sudeste 23 Este 0 -- -- 68
2019-03-31 16:00:00 9 13 Sudeste 31 Sudeste 0 -- -- 61
2019-03-31 15:00:00 9.8 19 Sudeste 24 Sudeste 0 -- -- 43
2019-03-31 14:00:00 10.1 17 Sudeste 23 Sudeste 0 -- -- 41
2019-03-31 13:00:00 10.4 13 Sudeste 26 Sudeste 0 -- -- 47
2019-03-31 12:00:00 9.9 19 Sudeste 33 Sudeste 0 -- -- 44
2019-03-31 11:00:00 9.8 17 Sudeste 24 Sudeste 0 -- -- 46
2019-03-31 10:00:00 8 7 Este 18 Nordeste 0 -- -- 59
2019-03-31 09:00:00 5.7 11 Este 17 Este 0 -- -- 71
2019-03-31 08:00:00 5 8 Este 25 Este 0 -- -- 72
2019-03-31 07:00:00 5.3 12 Sudeste 14 Sudeste 0 -- -- 72
2019-03-31 06:00:00 5.5 9 Este 19 Este 0 -- -- 70
2019-03-31 05:00:00 6.5 8 Sudeste 19 Sudeste 0 -- -- 68
2019-03-31 03:00:00 6.9 5 Sur 23 Este 0 -- -- 57
2019-03-31 01:00:00 7.4 17 Sudeste 26 Sudeste 0 -- -- 51
2019-03-31 00:00:00 7.1 5 Sudeste 17 Sudeste 0 -- -- 48
2019-03-30 23:00:00 8.8 9 Sudeste 24 Sur 0 -- -- 42
2019-03-30 22:00:00 8 19 Sudeste 34 Sudeste 0 -- -- 43
2019-03-30 21:00:00 8.4 20 Este 26 Este 0 -- -- 39
2019-03-30 20:00:00 10 19 Este 36 Sudeste 0 -- -- 35
2019-03-30 19:00:00 12.7 20 Sudeste 30 Este 0 -- -- 32
2019-03-30 18:00:00 14.2 18 Sudeste 31 Sudeste 0 -- -- 30
2019-03-30 17:00:00 15.3 15 Sudeste 30 Sudeste 0 -- -- 27
2019-03-30 16:00:00 15.2 14 Sur 27 Sur 0 -- -- 26
2019-03-30 15:00:00 15.6 8 Sur 29 Sur 0 -- -- 27
2019-03-30 14:00:00 14.2 14 Sur 35 Sur 0 -- -- 29
2019-03-30 13:00:00 13.3 17 Sur 27 Sur 0 -- -- 35
2019-03-30 12:00:00 12.7 13 Sur 22 Sur 0 -- -- 37
2019-03-30 11:00:00 12.2 8 Sur 16 Sur 0 -- -- 38
2019-03-30 10:00:00 10.4 6 Sudoeste 10 Sur 0 -- -- 43
2019-03-30 09:00:00 7.3 3 Noroeste 5 Noroeste 0 -- -- 61
2019-03-30 08:00:00 2.4 0 Calma 4 Norte 0 -- -- 72
2019-03-30 07:00:00 -0.1 2 Nordeste 5 Norte 0 -- -- 82
2019-03-30 06:00:00 0.9 3 Este 8 Este 0 -- -- 78
2019-03-30 05:00:00 1.7 0 Calma 5 Nordeste 0 -- -- 75
2019-03-30 04:00:00 2.9 0 Calma 5 Sudeste 0 -- -- 72
2019-03-30 03:00:00 4.3 4 Sudeste 7 Sudeste 0 -- -- 66
2019-03-30 02:00:00 5.1 6 Sudeste 13 Sudeste 0 -- -- 63
2019-03-30 01:00:00 5.6 6 Sudeste 13 Sur 0 -- -- 62
2019-03-30 00:00:00 6.9 8 Sur 33 Sudeste 0 -- -- 59
2019-03-29 23:00:00 7.6 17 Sudeste 40 Sudeste 0 -- -- 59
2019-03-29 22:00:00 8.3 30 Sudeste 45 Este 0 -- -- 58
2019-03-29 21:00:00 9.4 29 Sudeste 44 Sudeste 0 -- -- 55
2019-03-29 20:00:00 10.9 32 Sudeste 43 Este 0 -- -- 45
2019-03-29 19:00:00 12.4 25 Sudeste 39 Sudeste 0 -- -- 38
2019-03-29 18:00:00 14.1 28 Sudeste 43 Sudeste 0 -- -- 32
2019-03-29 17:00:00 15.7 17 Sudeste 35 Sur 0 -- -- 26
2019-03-29 16:00:00 16.7 12 Sur 34 Sur 0 -- -- 23
2019-03-29 15:00:00 15.1 17 Sudeste 41 Sur 0 -- -- 28
2019-03-29 14:00:00 14.8 21 Sur 35 Sudeste 0 -- -- 27
2019-03-29 13:00:00 13.3 14 Sur 28 Sudeste 0 -- -- 31
2019-03-29 12:00:00 12.6 16 Sur 23 Sur 0 -- -- 36
2019-03-29 11:00:00 11.9 12 Sur 27 Sudoeste 0 -- -- 36
2019-03-29 10:00:00 10.1 17 Sur 22 Sur 0 -- -- 38
2019-03-29 09:00:00 9.4 3 Sur 5 Sur 0 -- -- 49
2019-03-29 08:00:00 5.5 2 Este 4 Sudeste 0 -- -- 60
2019-03-29 07:00:00 1.5 0 Calma 3 Nordeste 0 -- -- 74
2019-03-29 06:00:00 1.5 0 Calma 6 Sudeste 0 -- -- 73
2019-03-29 05:00:00 2.2 0 Calma 3 Sudeste 0 -- -- 71
2019-03-29 04:00:00 2.3 0 Calma 5 Sudoeste 0 -- -- 73
2019-03-29 03:00:00 2.3 3 Norte 10 Noroeste 0 -- -- 70
2019-03-29 02:00:00 4.4 2 Este 6 Este 0 -- -- 65
2019-03-29 01:00:00 3.7 4 Nordeste 12 Este 0 -- -- 68
2019-03-29 00:00:00 6 8 Este 10 Este 0 -- -- 59
2019-03-28 23:00:00 6.1 4 Nordeste 15 Nordeste 0 -- -- 60
2019-03-28 22:00:00 5.2 9 Norte 17 Este 0 -- -- 58
2019-03-28 21:00:00 7.9 13 Este 16 Este 0 -- -- 52
2019-03-28 20:00:00 10.2 15 Este 23 Nordeste 0 -- -- 45
2019-03-28 19:00:00 13.2 17 Nordeste 27 Nordeste 0 -- -- 38
2019-03-28 18:00:00 14.9 21 Nordeste 28 Nordeste 0 -- -- 35
2019-03-28 17:00:00 16.1 12 Norte 25 Norte 0 -- -- 30
2019-03-28 16:00:00 16.6 8 Noroeste 18 Norte 0 -- -- 30
2019-03-28 15:00:00 15.5 6 Nordeste 16 Norte 0 -- -- 30
2019-03-28 14:00:00 14 10 Norte 20 Norte 0 -- -- 33
2019-03-28 13:00:00 12.9 8 Nordeste 17 Norte 0 -- -- 37
2019-03-28 12:00:00 12 5 Noroeste 13 Norte 0 -- -- 37
2019-03-28 11:00:00 13 5 Sur 10 Sur 0 -- -- 39
2019-03-28 10:00:00 11.9 2 Sur 18 Nordeste 0 -- -- 43
2019-03-28 09:00:00 7.1 13 Nordeste 19 Nordeste 0 -- -- 56
2019-03-28 08:00:00 2.8 8 Norte 15 Norte 0 -- -- 68
2019-03-28 07:00:00 -0.7 8 Norte 14 Norte 0 -- -- 78
2019-03-28 06:00:00 0 10 Norte 14 Nordeste 0 -- -- 76
2019-03-28 05:00:00 0.3 10 Nordeste 17 Norte 0 -- -- 73
2019-03-28 04:00:00 1.3 12 Nordeste 16 Nordeste 0 -- -- 70
2019-03-28 03:00:00 3.1 13 Nordeste 35 Nordeste 0 -- -- 64
2019-03-28 02:00:00 4.3 29 Nordeste 42 Nordeste 0 -- -- 59
2019-03-28 01:00:00 4.3 31 Nordeste 39 Nordeste 0 -- -- 56
2019-03-28 00:00:00 4.4 22 Norte 34 Norte 0 -- -- 50
2019-03-27 23:00:00 5.5 30 Norte 42 Norte 0 -- -- 42
2019-03-27 22:00:00 6.2 26 Norte 35 Norte 0 -- -- 35
2019-03-27 21:00:00 7.6 28 Norte 40 Nordeste 0 -- -- 33
2019-03-27 20:00:00 9.2 30 Norte 39 Norte 0 -- -- 31
2019-03-27 19:00:00 11.9 34 Nordeste 45 Nordeste 0 -- -- 26
2019-03-27 18:00:00 13.8 30 Nordeste 41 Nordeste 0 -- -- 22
2019-03-27 17:00:00 14.5 31 Nordeste 41 Nordeste 0 -- -- 22
2019-03-27 16:00:00 14.5 31 Nordeste 41 Norte 0 -- -- 23
2019-03-27 15:00:00 14.2 26 Nordeste 39 Nordeste 0 -- -- 22
2019-03-27 14:00:00 13.7 25 Norte 34 Nordeste 0 -- -- 21
2019-03-27 13:00:00 13.4 17 Nordeste 28 Norte 0 -- -- 20
2019-03-27 12:00:00 12.1 20 Norte 30 Nordeste 0 -- -- 22
2019-03-27 11:00:00 10.2 17 Nordeste 26 Norte 0 -- -- 26
2019-03-27 10:00:00 9 14 Norte 19 Norte 0 -- -- 32
2019-03-27 09:00:00 6.5 10 Nordeste 14 Nordeste 0 -- -- 40
2019-03-27 08:00:00 2.7 7 Norte 15 Norte 0 -- -- 52
2019-03-27 07:00:00 -0.9 8 Norte 14 Norte 0 -- -- 61
2019-03-27 06:00:00 -0.5 8 Nordeste 15 Nordeste 0 -- -- 59
2019-03-27 05:00:00 0.5 12 Norte 14 Norte 0 -- -- 57
2019-03-27 04:00:00 1.5 8 Norte 31 Norte 0 -- -- 54
2019-03-27 03:00:00 2.4 19 Norte 34 Nordeste 0 -- -- 52
2019-03-27 02:00:00 3.4 24 Nordeste 40 Nordeste 0 -- -- 47
2019-03-27 01:00:00 3.7 29 Nordeste 39 Nordeste 0 -- -- 46
2019-03-27 00:00:00 4.1 28 Norte 43 Norte 0 -- -- 43
2019-03-26 23:00:00 4.4 29 Norte 47 Norte 0 -- -- 42
2019-03-26 22:00:00 5.2 38 Norte 49 Norte 0 -- -- 39
2019-03-26 21:00:00 6.1 30 Norte -- -- -- -- -- 37
2019-03-26 20:00:00 7.5 42 Nordeste 55 Nordeste 0 -- -- 34
2019-03-26 19:00:00 10.2 36 Nordeste 48 Nordeste 0 -- -- 26
2019-03-26 18:00:00 13 36 Nordeste 46 Nordeste 0 -- -- 18
2019-03-26 17:00:00 14.4 33 Nordeste 43 Nordeste 0 -- -- 17
2019-03-26 16:00:00 15 26 Nordeste 46 Nordeste 0 -- -- 20
2019-03-26 15:00:00 14.4 22 Nordeste 36 Nordeste 0 -- -- 22
2019-03-26 14:00:00 13.4 26 Nordeste 37 Nordeste 0 -- -- 28
2019-03-26 13:00:00 13.1 10 Este 23 Norte 0 -- -- 30
2019-03-26 12:00:00 10.9 15 Nordeste 29 Norte 0 -- -- 33
2019-03-26 11:00:00 9.4 14 Nordeste 23 Nordeste 0 -- -- 38
2019-03-26 10:00:00 7 17 Nordeste 32 Nordeste 0 -- -- 46
2019-03-26 09:00:00 5 25 Nordeste 42 Nordeste 0 -- -- 55
2019-03-26 08:00:00 3.2 41 Nordeste 58 Nordeste 0 -- -- 61
2019-03-26 07:00:00 2.5 42 Nordeste 55 Nordeste 0 -- -- 65
2019-03-26 06:00:00 2.3 29 Nordeste 41 Nordeste 0 -- -- 71
2019-03-26 05:00:00 2.6 32 Nordeste 45 Nordeste 0 -- -- 72
2019-03-26 04:00:00 2.9 28 Norte 40 Norte 0 -- -- 73
2019-03-26 03:00:00 3 27 Nordeste 51 Nordeste 0 -- -- 74
2019-03-26 02:00:00 3.4 40 Nordeste 54 Nordeste 0 -- -- 73
2019-03-26 01:00:00 3.3 35 Nordeste 57 Norte 0 -- -- 74
2019-03-26 00:00:00 3.6 45 Nordeste -- -- -- -- -- 71
2019-03-25 23:00:00 3.7 42 Norte 63 Norte 0 -- -- 70
2019-03-25 22:00:00 -- -- -- -- -- -- -- -- --
2019-03-25 21:00:00 5 39 Norte -- -- -- -- -- 64
2019-03-25 20:00:00 6.7 35 Norte 50 Nordeste 0 -- -- 52
2019-03-25 19:00:00 8.8 42 Nordeste -- -- -- -- -- 44
2019-03-25 18:00:00 10.6 46 Nordeste 57 Nordeste 0 -- -- 41
2019-03-25 17:00:00 12 39 Nordeste 52 Nordeste 0 -- -- 34
2019-03-25 16:00:00 13.2 35 Nordeste 51 Nordeste 0 -- -- 34
2019-03-25 15:00:00 12.8 32 Nordeste 48 Nordeste 0 -- -- 37
2019-03-25 14:00:00 11.9 35 Nordeste 50 Nordeste 0 -- -- 42
2019-03-25 13:00:00 11.2 35 Nordeste 49 Nordeste 0 -- -- 43
2019-03-25 12:00:00 10 33 Nordeste 49 Nordeste 0 -- -- 53
2019-03-25 11:00:00 9.2 38 Nordeste 50 Nordeste 0 -- -- 56
2019-03-25 10:00:00 8.3 39 Nordeste 49 Nordeste 0 -- -- 59
2019-03-25 09:00:00 7.9 31 Nordeste 40 Norte 0 -- -- 59
2019-03-25 08:00:00 5.9 21 Norte 25 Norte 0 -- -- 65
2019-03-25 07:00:00 5.2 17 Norte 38 Norte 0 -- -- 63
2019-03-25 06:00:00 6.2 28 Norte 42 Nordeste 0 -- -- 58
2019-03-25 05:00:00 6.9 31 Nordeste 45 Norte 0 -- -- 56
2019-03-25 04:00:00 6.5 27 Norte 38 Nordeste 0 -- -- 59
2019-03-25 03:00:00 6.3 18 Norte 24 Norte 0 -- -- 61
2019-03-25 02:00:00 7.3 20 Norte 31 Norte 0 -- -- 57
2019-03-25 01:00:00 7.4 22 Norte 36 Norte 0 -- -- 56
2019-03-25 00:00:00 8.2 24 Norte 41 Norte 0 -- -- 54
2019-03-24 23:00:00 10 31 Nordeste 50 Nordeste 0 -- -- 49
2019-03-24 22:00:00 11.3 38 Nordeste 52 Nordeste 0 -- -- 42
2019-03-24 21:00:00 11.8 32 Nordeste 44 Nordeste 0 -- -- 37
2019-03-24 20:00:00 13.4 31 Nordeste 40 Nordeste 0 -- -- 36
2019-03-24 19:00:00 15.9 24 Nordeste 31 Nordeste 0 -- -- 30
2019-03-24 18:00:00 17.8 19 Nordeste 31 Nordeste 0 -- -- 29
2019-03-24 17:00:00 17 14 Este 27 Este 0 -- -- 31
2019-03-24 16:00:00 17.9 16 Nordeste 26 Nordeste 0 -- -- 27
2019-03-24 15:00:00 20.8 5 Sur 20 Oeste 0 -- -- 22
2019-03-24 14:00:00 18.3 12 Sudoeste 23 Sudoeste 0 -- -- 24
2019-03-24 13:00:00 17.7 11 Sur 27 Sudoeste 0 -- -- 25
2019-03-24 12:00:00 17.1 10 Sur 24 Sur 0 -- -- 26
2019-03-24 11:00:00 17.3 2 Oeste 7 Sur 0 -- -- 30
2019-03-24 10:00:00 14.4 0 Calma 13 Norte 0 -- -- 37
2019-03-24 09:00:00 7.4 11 Norte 15 Nordeste 0 -- -- 58
2019-03-24 08:00:00 3.6 8 Nordeste 12 Nordeste 0 -- -- 66
2019-03-24 07:00:00 0.9 3 Nordeste 8 Norte 0 -- -- 73
2019-03-24 06:00:00 3 5 Nordeste 16 Norte 0 -- -- 68
2019-03-24 05:00:00 2.2 8 Norte 13 Norte 0 -- -- 70
2019-03-24 04:00:00 3.7 2 Nordeste 10 Norte 0 -- -- 64
2019-03-24 03:00:00 4 7 Nordeste 10 Norte 0 -- -- 64
2019-03-24 02:00:00 5 5 Norte 9 Norte 0 -- -- 59
2019-03-24 01:00:00 7.1 8 Este 14 Sudeste 0 -- -- 53
2019-03-24 00:00:00 8 7 Este 12 Este 0 -- -- 50
2019-03-23 23:00:00 8.6 4 Nordeste 17 Este 0 -- -- 49
2019-03-23 22:00:00 8.6 4 Norte 10 Este 0 -- -- 47
2019-03-23 21:00:00 9.4 9 Este 17 Este 0 -- -- 46
2019-03-23 20:00:00 11.4 15 Este 20 Sudeste 0 -- -- 42
2019-03-23 19:00:00 14.4 15 Sudeste 27 Este 0 -- -- 35
2019-03-23 18:00:00 16.4 15 Sudeste 29 Sudeste 0 -- -- 31
2019-03-23 17:00:00 16.7 22 Sudeste 43 Sudeste 0 -- -- 28
2019-03-23 16:00:00 17.3 19 Sudeste 33 Este 0 -- -- 28
2019-03-23 15:00:00 17.3 16 Sudeste 36 Sudeste 0 -- -- 27
2019-03-23 14:00:00 16.4 22 Sudeste 34 Sudeste 0 -- -- 30
2019-03-23 13:00:00 16 20 Sudeste 36 Sudeste 0 -- -- 31
2019-03-23 12:00:00 15.7 17 Sudeste 30 Sudeste 0 -- -- 36
2019-03-23 11:00:00 15.5 4 Sudeste 11 Sudeste 0 -- -- 41
2019-03-23 10:00:00 11.7 7 Norte 12 Norte 0 -- -- 52
2019-03-23 09:00:00 7 7 Norte 11 Norte 0 -- -- 63
2019-03-23 08:00:00 1.8 8 Norte 11 Norte 0 -- -- 74
2019-03-23 07:00:00 1.4 10 Norte 17 Norte 0 -- -- 73
2019-03-23 06:00:00 0.9 13 Norte 18 Nordeste 0 -- -- 75
2019-03-23 05:00:00 1.7 8 Norte 17 Nordeste 0 -- -- 74
2019-03-23 04:00:00 2.1 8 Norte 20 Norte 0 -- -- 72
2019-03-23 03:00:00 2.3 10 Norte 15 Nordeste 0 -- -- 71
2019-03-23 02:00:00 2.8 5 Norte 9 Norte 0 -- -- 69
2019-03-23 01:00:00 4.5 3 Este 8 Nordeste 0 -- -- 64
2019-03-23 00:00:00 8 6 Este 8 Este 0 -- -- 53
2019-03-22 23:00:00 7.7 4 Este 23 Este 0 -- -- 53
2019-03-22 22:00:00 7.8 17 Este 26 Este 0 -- -- 52
2019-03-22 21:00:00 7.8 15 Este 18 Este 0 -- -- 51
2019-03-22 20:00:00 9.2 14 Este 20 Sudeste 0 -- -- 47
2019-03-22 19:00:00 12.5 13 Sudeste 25 Sudeste 0 -- -- 39
2019-03-22 18:00:00 13.8 20 Sudeste 36 Sudeste 0 -- -- 34
2019-03-22 17:00:00 14.4 21 Sudeste 31 Sudeste 0 -- -- 33
2019-03-22 16:00:00 14.9 18 Sudeste 36 Sur 0 -- -- 32
2019-03-22 15:00:00 14.9 18 Sudeste 32 Sudeste 0 -- -- 32
2019-03-22 14:00:00 14.1 12 Sudeste 28 Sudeste 0 -- -- 32
2019-03-22 13:00:00 13 15 Sudeste 29 Sudeste 0 -- -- 34
2019-03-22 12:00:00 13 10 Sur 25 Sur 0 -- -- 30
2019-03-22 11:00:00 12.5 4 Sur 13 Sudoeste 0 -- -- 32
2019-03-22 10:00:00 8.1 7 Norte 13 Norte 0 -- -- 44
2019-03-22 09:00:00 3 10 Norte 13 Norte 0 -- -- 54
2019-03-22 08:00:00 -1.1 7 Norte 13 Norte 0 -- -- 64
2019-03-22 07:00:00 -2.5 9 Norte 14 Norte 0 -- -- 67
2019-03-22 06:00:00 -2.8 6 Nordeste 14 Norte 0 -- -- 71
2019-03-22 05:00:00 -2 14 Norte 15 Norte 0 -- -- 67
2019-03-22 04:00:00 -1 7 Norte 12 Nordeste 0 -- -- 65
2019-03-22 03:00:00 -0.4 7 Norte 11 Norte 0 -- -- 62
2019-03-22 02:00:00 -1.1 6 Norte 9 Norte 0 -- -- 62
2019-03-22 01:00:00 1.4 0 Calma 10 Este 0 -- -- 54
2019-03-22 00:00:00 4.3 7 Este 9 Este 0 -- -- 45
2019-03-21 23:00:00 3.5 4 Este 16 Este 0 -- -- 47
2019-03-21 22:00:00 3.8 15 Este 17 Este 0 -- -- 47
2019-03-21 21:00:00 4.5 14 Este 17 Este 0 -- -- 44
2019-03-21 20:00:00 6.4 12 Este 23 Sudeste 0 -- -- 41
2019-03-21 19:00:00 9.9 19 Sudeste 25 Sudeste 0 -- -- 35
2019-03-21 18:00:00 11.9 14 Sudeste 23 Sudeste 0 -- -- 31
2019-03-21 17:00:00 13.2 11 Este 26 Sudeste 0 -- -- 27
2019-03-21 16:00:00 13.7 4 Sudeste 21 Sudeste 0 -- -- 29
2019-03-21 15:00:00 12.7 11 Sudeste 23 Sur 0 -- -- 32
2019-03-21 14:00:00 12.2 7 Sudoeste 20 Sudeste 0 -- -- 29
2019-03-21 13:00:00 -- -- -- -- -- -- -- -- --
2019-03-21 12:00:00 -- -- -- -- -- -- -- -- --
2019-03-21 11:00:00 -- -- -- -- -- -- -- -- --
2019-03-21 10:00:00 -- -- -- -- -- -- -- -- --
2019-03-21 09:00:00 3.1 12 Nordeste 15 Norte 0 -- -- 64
2019-03-21 08:00:00 0.1 5 Nordeste 10 Nordeste 0 -- -- 75
2019-03-21 07:00:00 -2.2 0 Calma 19 Norte 0 -- -- 82
2019-03-21 06:00:00 -1.9 -- -- -- -- -- -- -- --
2019-03-21 05:00:00 -2.1 10 Norte 21 Norte 0 -- -- 83
2019-03-21 04:00:00 -0.5 17 Norte 22 Norte 0 -- -- 78
2019-03-21 03:00:00 0.1 17 Norte 21 Norte 0 -- -- 77
2019-03-21 02:00:00 -0.2 15 Norte 29 Norte 0 -- -- 77
2019-03-21 01:00:00 0.9 23 Norte 33 Norte 0 -- -- 72
2019-03-21 00:00:00 1.4 25 Norte 34 Nordeste 0 -- -- 69